Latest Weather Observations for Brisbane

IDQ60901

Issued at 8:21 pm EST Saturday 20 December 2014 (issued every 10 minutes, with the page automatically refreshed every 10 minutes)

About weather observations | Map of Brisbane area stations | Latest observations for Brisbane area | Other Formats
Station Details ID: 040913 Name: BRISBANE Lat: -27.48 Lon: 153.04 Height: 8.13 m
Data from the previous 72 hours. | See also: Recent months at Brisbane
Date/Time
EST
Tmp

°C
App
Tmp
°C
Dew
Point
°C
Rel
Hum
%
Delta-T

°C
Wind Press
QNH
hPa
Press
MSL
hPa
Rain
since
9 am
mm
Dir
 
Spd
km/h
Gust
km/h
Spd
kts
Gust
kts
20/08:00pm 23.8 24.7 16.6 64 4.4 E 7 13 4 7 1016.4 1016.4 0.0
20/07:30pm 23.9 24.8 16.7 64 4.4 E 7 13 4 7 1016.0 1016.0 0.0
20/07:00pm 24.3 24.1 16.8 63 4.6 E 13 22 7 12 1015.5 1015.5 0.0
20/06:30pm 24.8 24.9 17.5 64 4.6 E 13 24 7 13 1014.9 1014.9 0.0
20/06:00pm 25.3 25.8 17.5 62 4.9 ENE 11 20 6 11 1014.7 1014.7 0.0
20/05:30pm 25.6 25.2 16.2 56 5.8 ENE 13 22 7 12 1014.4 1014.4 0.0
20/05:00pm 26.0 26.0 17.1 58 5.5 E 13 20 7 11 1013.7 1013.7 0.0
20/04:30pm 26.3 25.9 17.1 57 5.7 E 15 22 8 12 1013.4 1013.4 0.0
20/04:00pm 27.1 26.3 17.0 54 6.3 E 17 26 9 14 1013.2 1013.2 0.0
20/03:30pm 27.8 27.2 16.7 50 6.9 E 15 33 8 18 1013.1 1013.1 0.0
20/03:00pm 28.1 27.5 15.7 46 7.6 E 13 22 7 12 1013.5 1013.5 0.0
20/02:30pm 27.2 26.4 16.2 51 6.8 ESE 15 24 8 13 1014.1 1014.1 0.0
20/02:00pm 27.5 27.3 16.8 52 6.7 E 13 22 7 12 1014.1 1014.1 0.0
20/01:30pm 28.2 28.2 17.1 51 7.0 E 13 26 7 14 1014.3 1014.3 0.0
20/01:00pm 27.9 27.6 16.5 50 7.1 ESE 13 22 7 12 1014.5 1014.5 0.0
20/12:30pm 27.3 27.1 16.6 52 6.6 E 13 24 7 13 1014.8 1014.8 0.0
20/12:00pm 28.5 29.4 18.3 54 6.5 ESE 11 20 6 11 1015.0 1015.0 0.0
20/11:30am 27.2 27.3 17.4 55 6.2 E 13 24 7 13 1015.3 1015.3 0.0
20/11:00am 28.0 27.8 17.5 52 6.6 E 15 24 8 13 1015.6 1015.6 0.0
20/10:30am 28.3 28.8 18.4 55 6.3 E 13 20 7 11 1015.8 1015.8 0.0
20/10:00am 27.7 28.7 19.5 61 5.3 E 13 22 7 12 1015.8 1015.8 0.0
20/09:30am 27.7 28.7 18.7 58 5.8 E 11 22 6 12 1015.8 1015.8 0.0
20/09:00am 26.3 26.8 17.4 58 5.6 ESE 11 19 6 10 1016.0 1016.0 0.0
20/08:30am 26.1 26.8 18.0 61 5.1 SE 11 19 6 10 1015.9 1015.9 0.0
20/08:00am 26.2 27.3 18.1 61 5.1 SE 9 15 5 8 1015.9 1015.9 0.0
20/07:30am 25.7 26.4 17.9 62 4.9 ESE 11 20 6 11 1015.8 1015.8 0.0
20/07:00am 25.0 25.6 17.7 64 4.6 SE 11 24 6 13 1015.6 1015.6 0.0
20/06:30am 24.3 25.7 17.8 67 4.1 SE 7 15 4 8 1015.1 1015.1 0.0
20/06:00am 23.7 25.3 17.9 70 3.6 SSE 6 11 3 6 1014.7 1014.7 0.0
20/05:30am 22.6 24.5 17.7 74 3.0 S 4 9 2 5 1014.4 1014.4 0.0
20/05:00am 21.9 24.1 17.5 76 2.7 S 2 6 1 3 1014.1 1014.1 0.0
20/04:30am 22.1 23.9 17.5 75 2.8 SSE 4 7 2 4 1013.9 1013.9 0.0
20/04:00am 22.2 24.1 17.6 75 2.8 SE 4 6 2 3 1013.6 1013.6 0.0
20/03:30am 22.2 24.5 17.6 75 2.8 SSE 2 6 1 3 1013.5 1013.5 0.0
20/03:00am 22.4 24.2 17.5 74 3.0 SSE 4 9 2 5 1013.5 1013.5 0.0
20/02:30am 22.6 24.1 17.7 74 3.0 SE 6 9 3 5 1013.3 1013.3 0.0
20/02:00am 22.9 24.6 18.0 74 3.1 SE 6 17 3 9 1013.4 1013.4 0.0
20/01:30am 22.9 24.6 18.0 74 3.1 ESE 6 13 3 7 1013.5 1013.5 0.0
20/01:00am 23.3 25.1 18.2 73 3.2 ESE 6 15 3 8 1013.6 1013.6 0.0
20/12:30am 23.6 25.3 18.5 73 3.2 ESE 7 15 4 8 1013.9 1013.9 0.0
20/12:00am 23.9 25.9 18.8 73 3.2 ESE 6 15 3 8 1014.1 1014.1 0.0
 
Date/Time
EST
Tmp

°C
App
Tmp
°C
Dew
Point
°C
Rel
Hum
%
Delta-T

°C
Wind Press
QNH
hPa
Press
MSL
hPa
Rain
since
9 am
mm
Dir
 
Spd
km/h
Gust
km/h
Spd
kts
Gust
kts
19/11:30pm 24.3 26.4 18.9 72 3.4 SE 6 13 3 7 1014.3 1014.3 0.0
19/11:00pm 24.6 26.7 19.4 73 3.3 ESE 7 17 4 9 1014.1 1014.1 0.0
19/10:30pm 24.9 26.5 19.9 74 3.2 ESE 11 26 6 14 1014.0 1014.0 0.0
19/10:00pm 25.2 27.2 20.0 73 3.4 ESE 9 17 5 9 1013.8 1013.8 0.0
19/09:30pm 25.8 27.6 18.7 65 4.5 E 7 13 4 7 1013.4 1013.4 0.0
19/09:00pm 25.5 28.3 20.5 74 3.3 ESE 6 9 3 5 1012.9 1012.9 0.0
19/08:30pm 25.7 28.6 21.1 76 3.0 E 7 13 4 7 1012.4 1012.4 0.0
19/08:00pm 26.1 28.5 21.5 76 3.1 E 11 17 6 9 1012.1 1012.1 0.0
19/07:30pm 26.3 28.0 21.7 76 3.1 E 15 28 8 15 1011.3 1011.3 0.0
19/07:00pm 27.1 30.2 21.4 71 3.8 ENE 7 11 4 6 1010.1 1010.1 0.0
19/06:30pm 28.0 30.9 21.1 66 4.6 ENE 7 11 4 6 1009.6 1009.6 0.0
19/06:00pm 29.0 31.1 20.2 59 5.8 NE 9 17 5 9 1009.2 1009.2 0.0
19/05:30pm 29.6 31.5 19.0 53 6.9 NNE 7 19 4 10 1008.9 1008.9 0.0
19/05:00pm 30.0 31.6 19.1 52 7.1 NE 9 17 5 9 1008.5 1008.5 0.0
19/04:30pm 31.0 32.3 19.4 50 7.6 NNE 11 19 6 10 1008.2 1008.2 0.0
19/04:00pm 34.6 33.6 11.1 24 13.8 WSW 7 17 4 9 1007.8 1007.8 0.0
19/03:30pm 34.3 33.4 11.4 25 13.5 WSW 7 17 4 9 1007.9 1007.9 0.0
19/03:00pm 34.2 33.1 10.7 24 13.7 WSW 7 20 4 11 1008.2 1008.2 0.0
19/02:30pm 33.8 33.0 11.6 26 13.1 W 7 15 4 8 1008.6 1008.6 0.0
19/02:00pm 33.1 32.4 13.2 30 12.0 S 9 15 5 8 1008.9 1008.9 0.0
19/01:30pm 33.0 32.8 13.6 31 11.7 WSW 7 15 4 8 1009.2 1009.2 0.0
19/01:00pm 32.4 34.1 18.6 44 9.0 SW 7 19 4 10 1009.4 1009.4 0.0
19/12:30pm 31.5 32.7 17.4 43 9.0 SW 7 15 4 8 1009.8 1009.8 0.0
19/12:00pm 30.4 31.6 18.2 48 7.8 W 9 20 5 11 1010.2 1010.2 0.0
19/11:30am 29.8 31.7 18.9 52 7.1 W 7 13 4 7 1010.8 1010.8 0.0
19/11:00am 29.1 30.3 18.2 51 7.0 WSW 9 17 5 9 1011.1 1011.1 0.0
19/10:30am 28.4 30.0 19.1 57 6.0 WSW 9 19 5 10 1011.2 1011.2 0.0
19/10:00am 27.6 29.2 18.3 57 5.9 WSW 7 19 4 10 1011.2 1011.2 0.0
19/09:30am 27.1 28.6 18.9 61 5.3 WSW 9 20 5 11 1011.4 1011.4 0.0
19/09:00am 26.0 27.9 18.9 65 4.5 WNW 7 11 4 6 1011.7 1011.7 16.8
19/08:30am 24.7 26.7 19.1 71 3.6 NW 7 11 4 6 1011.8 1011.8 16.8
19/08:00am 23.9 25.7 18.8 73 3.2 NW 7 9 4 5 1011.9 1011.9 16.8
19/07:30am 22.9 25.3 18.9 78 2.5 WNW 4 7 2 4 1012.1 1012.1 16.8
19/07:00am 22.4 24.7 19.4 83 1.9 W 6 9 3 5 1011.9 1011.9 16.8
19/06:30am 21.9 24.2 19.5 86 1.5 WSW 6 7 3 4 1011.9 1011.9 16.8
19/06:00am 21.7 24.7 20.0 90 1.1 WSW 4 7 2 4 1011.4 1011.4 16.8
19/05:30am 21.4 24.1 19.5 89 1.2 W 4 7 2 4 1011.5 1011.5 16.8
19/05:00am 21.4 23.8 19.7 90 1.1 W 6 9 3 5 1011.2 1011.2 16.8
19/04:30am 21.0 24.5 19.5 91 1.0 CALM 0 2 0 1 1010.8 1010.8 16.8
19/04:00am 21.3 24.0 19.4 89 1.2 S 4 6 2 3 1010.9 1010.9 16.6
19/03:30am 21.7 24.3 20.0 90 1.1 WSW 6 9 3 5 1011.2 1011.2 16.4
19/03:00am 21.8 24.9 20.3 91 1.0 W 4 7 2 4 1011.4 1011.4 16.2
19/02:30am 21.9 25.4 20.4 91 1.0 WNW 2 6 1 3 1011.6 1011.6 16.2
19/02:00am 21.9 25.0 20.2 90 1.1 WSW 4 6 2 3 1012.0 1012.0 15.8
19/01:30am 22.1 25.3 19.8 87 1.5 WSW 2 6 1 3 1012.4 1012.4 15.2
19/01:00am 22.6 24.9 19.9 85 1.7 W 7 15 4 8 1012.3 1012.3 14.6
19/12:30am 23.2 26.4 21.3 89 1.2 NW 6 7 3 4 1012.2 1012.2 14.0
19/12:00am 23.6 26.6 21.9 90 1.1 WNW 9 22 5 12 1012.2 1012.2 12.8
 
Date/Time
EST
Tmp

°C
App
Tmp
°C
Dew
Point
°C
Rel
Hum
%
Delta-T

°C
Wind Press
QNH
hPa
Press
MSL
hPa
Rain
since
9 am
mm
Dir
 
Spd
km/h
Gust
km/h
Spd
kts
Gust
kts
18/11:30pm 24.0 27.5 21.9 88 1.4 NW 6 9 3 5 1011.8 1011.8 12.6
18/11:00pm 23.7 27.5 21.6 88 1.4 N 4 7 2 4 1011.3 1011.3 12.6
18/10:30pm 23.5 27.1 21.2 87 1.5 NNW 4 7 2 4 1011.6 1011.6 12.4
18/10:00pm 23.5 27.2 21.4 88 1.4 ENE 4 9 2 5 1010.9 1010.9 12.4
18/09:30pm 23.1 27.4 21.2 89 1.2 CALM 0 0 0 0 1011.1 1011.1 12.4
18/09:00pm 23.2 27.6 21.3 89 1.2 CALM 0 4 0 2 1011.1 1011.1 12.4
18/08:30pm 23.1 26.7 21.2 89 1.2 NE 4 7 2 4 1010.6 1010.6 12.4
18/08:00pm 23.0 27.3 21.1 89 1.2 CALM 0 6 0 3 1010.3 1010.3 12.4
18/07:30pm 22.6 26.3 20.7 89 1.2 WSW 2 6 1 3 1010.6 1010.6 12.4
18/07:00pm 22.7 26.3 21.2 91 1.0 SW 4 7 2 4 1010.5 1010.5 12.4
18/06:30pm 22.6 25.4 20.9 90 1.1 SW 7 13 4 7 1009.7 1009.7 12.2
18/06:00pm 23.3 25.3 21.6 90 1.1 WSW 13 33 7 18 1010.1 1010.1 10.8
18/05:52pm 23.9 23.2 21.0 84 1.9 W 26 56 14 30 1009.9 1009.9 3.6
18/05:38pm 28.8 29.1 19.7 58 5.9 WNW 17 48 9 26 1007.9 1007.9 0.0
18/05:30pm 29.1 32.5 21.6 64 5.0 NNE 6 11 3 6 1006.2 1006.1 0.0
18/05:00pm 28.9 31.9 21.9 66 4.7 NNE 9 17 5 9 1005.7 1005.6 0.0
18/04:30pm 29.0 31.7 22.2 66 4.6 NNE 11 20 6 11 1005.3 1005.2 0.0
18/04:00pm 29.4 32.5 22.9 68 4.5 NNE 11 20 6 11 1005.2 1005.1 0.0
18/03:30pm 29.4 32.9 23.6 71 4.0 NE 11 22 6 12 1005.7 1005.6 0.0
18/03:00pm 30.1 34.1 23.8 69 4.4 NE 9 17 5 9 1005.8 1005.7 0.0
18/02:30pm 30.2 33.4 23.1 65 4.9 NE 11 20 6 11 1006.0 1005.9 0.0
18/02:00pm 31.4 34.3 23.2 61 5.7 NE 13 22 7 12 1006.4 1006.3 0.0
18/01:30pm 31.3 34.0 22.9 61 5.8 ENE 13 24 7 13 1007.0 1007.0 0.0
18/01:00pm 31.6 34.0 22.3 57 6.3 NE 13 22 7 12 1007.7 1007.7 0.0
18/12:30pm 32.1 35.8 23.3 59 6.1 ENE 9 20 5 11 1008.1 1008.1 0.0
18/12:00pm 31.3 34.5 22.3 58 6.1 NE 9 17 5 9 1008.6 1008.6 0.0
18/11:30am 30.9 34.2 22.5 61 5.7 NE 9 19 5 10 1009.0 1009.0 0.0
18/11:00am 30.4 33.6 22.3 62 5.5 ENE 9 17 5 9 1009.8 1009.8 0.0
18/10:30am 30.4 33.6 22.3 62 5.5 NNE 9 17 5 9 1010.0 1010.0 0.0
18/10:00am 30.3 33.6 22.5 63 5.3 NNW 9 17 5 9 1010.5 1010.5 0.0
18/09:30am 29.7 33.5 23.4 69 4.3 N 9 17 5 9 1010.5 1010.5 0.0
18/09:00am 29.0 32.5 22.2 66 4.6 NE 7 13 4 7 1010.5 1010.5 1.2
18/08:30am 27.3 30.3 22.0 73 3.6 ENE 9 13 5 7 1010.8 1010.8 1.2
18/08:00am 26.9 30.6 22.5 77 3.0 ENE 7 13 4 7 1011.1 1011.1 1.2
18/07:30am 26.1 30.1 22.8 82 2.2 ENE 6 13 3 7 1011.1 1011.1 1.2
18/07:00am 25.8 29.3 22.1 80 2.5 NE 7 13 4 7 1011.3 1011.3 1.2
18/06:30am 25.9 30.0 22.2 80 2.5 NE 4 9 2 5 1011.0 1011.0 1.2
18/06:00am 24.9 28.4 22.2 85 1.8 ENE 7 9 4 5 1010.6 1010.6 1.2
18/05:30am 24.7 28.7 22.0 85 1.8 ENE 4 11 2 6 1010.3 1010.3 1.2
18/05:00am 24.3 27.8 21.8 86 1.7 E 6 9 3 5 1009.8 1009.8 1.2
18/04:30am 24.4 28.4 22.7 90 1.1 WSW 6 11 3 6 1008.7 1008.7 1.2
18/04:00am 24.6 28.8 22.5 88 1.4 WSW 4 9 2 5 1007.7 1007.7 1.2
18/03:30am 25.2 29.2 22.7 86 1.7 SW 6 15 3 8 1008.3 1008.3 1.2
18/03:00am 25.4 29.9 22.9 86 1.7 SSW 4 9 2 5 1008.8 1008.8 1.2
18/02:30am 25.2 30.5 23.1 88 1.4 CALM 0 0 0 0 1009.2 1009.2 1.2
18/02:00am 25.6 30.8 22.9 85 1.8 CALM 0 0 0 0 1009.8 1009.8 1.2
18/01:30am 26.0 30.4 23.5 86 1.7 SW 6 13 3 7 1010.0 1010.0 1.2
18/01:00am 26.0 30.8 22.9 83 2.1 WSW 2 4 1 2 1009.7 1009.7 1.0
18/12:30am 25.7 30.5 22.8 84 2.0 SSE 2 4 1 2 1008.5 1008.5 1.0
18/12:00am 25.9 30.3 22.8 83 2.1 SW 4 6 2 3 1008.2 1008.2 1.0
 
Date/Time
EST
Tmp

°C
App
Tmp
°C
Dew
Point
°C
Rel
Hum
%
Delta-T

°C
Wind Press
QNH
hPa
Press
MSL
hPa
Rain
since
9 am
mm
Dir
 
Spd
km/h
Gust
km/h
Spd
kts
Gust
kts
17/11:30pm 26.0 30.0 22.7 82 2.2 NE 6 9 3 5 1007.4 1007.4 1.0
17/11:00pm 26.8 32.1 23.7 83 2.1 N 2 6 1 3 1007.0 1007.0 0.0
17/10:30pm 26.8 31.5 23.9 84 2.0 SE 6 9 3 5 1007.4 1007.4 0.0
17/10:00pm 26.5 31.7 23.6 84 2.0 NNE 2 4 1 2 1006.9 1006.9 0.0
17/09:30pm 26.7 31.4 24.0 85 1.9 ENE 6 9 3 5 1006.7 1006.6 0.0
17/09:00pm 27.0 31.8 24.1 84 2.0 ENE 6 11 3 6 1006.4 1006.3 0.0
17/08:30pm 27.2 31.7 23.7 81 2.4 ENE 6 7 3 4 1005.9 1005.8 0.0

Latest Capital City Observations: Canberra | Sydney | Melbourne | Brisbane | Adelaide | Perth | Hobart | Darwin

Other Formats:

Comma delimited format used in spreadsheet applications
http://www.bom.gov.au/fwo/IDQ60901/IDQ60901.94576.axf

JavaScript Object Notation format (JSON) in row-major order
http://www.bom.gov.au/fwo/IDQ60901/IDQ60901.94576.json